sensor_id;sensor_type;location;lat;lon;timestamp;temperature;humidity
13375;DHT22;6756;51.354;15.754;2022-10-16T00:03:46;10.30;99.90
13375;DHT22;6756;51.354;15.754;2022-10-16T00:07:47;10.20;99.90
13375;DHT22;6756;51.354;15.754;2022-10-16T00:11:47;10.00;99.90
13375;DHT22;6756;51.354;15.754;2022-10-16T00:15:48;9.90;99.90
13375;DHT22;6756;51.354;15.754;2022-10-16T00:19:49;9.90;99.90
13375;DHT22;6756;51.354;15.754;2022-10-16T00:23:52;10.00;99.90
13375;DHT22;6756;51.354;15.754;2022-10-16T00:27:53;10.00;99.90
13375;DHT22;6756;51.354;15.754;2022-10-16T00:31:54;10.10;99.90
13375;DHT22;6756;51.354;15.754;2022-10-16T00:35:58;10.00;99.90
13375;DHT22;6756;51.354;15.754;2022-10-16T00:39:59;10.00;99.90
13375;DHT22;6756;51.354;15.754;2022-10-16T00:44:03;10.00;99.90
13375;DHT22;6756;51.354;15.754;2022-10-16T00:48:06;10.10;99.90
13375;DHT22;6756;51.354;15.754;2022-10-16T00:52:11;10.40;99.90
13375;DHT22;6756;51.354;15.754;2022-10-16T00:56:12;10.70;99.90
13375;DHT22;6756;51.354;15.754;2022-10-16T01:00:19;11.00;99.90
13375;DHT22;6756;51.354;15.754;2022-10-16T01:04:20;11.30;99.90
13375;DHT22;6756;51.354;15.754;2022-10-16T01:08:29;11.60;99.90
13375;DHT22;6756;51.354;15.754;2022-10-16T01:12:41;11.80;99.90
13375;DHT22;6756;51.354;15.754;2022-10-16T01:16:53;12.00;99.90
13375;DHT22;6756;51.354;15.754;2022-10-16T01:21:07;12.20;99.90
13375;DHT22;6756;51.354;15.754;2022-10-16T01:25:15;12.40;99.90
13375;DHT22;6756;51.354;15.754;2022-10-16T01:29:25;12.50;99.90
13375;DHT22;6756;51.354;15.754;2022-10-16T01:33:40;12.50;99.90
13375;DHT22;6756;51.354;15.754;2022-10-16T01:37:53;12.50;99.90
13375;DHT22;6756;51.354;15.754;2022-10-16T01:42:04;12.40;99.90
13375;DHT22;6756;51.354;15.754;2022-10-16T01:46:05;12.20;99.90
13375;DHT22;6756;51.354;15.754;2022-10-16T01:50:09;12.00;99.90
13375;DHT22;6756;51.354;15.754;2022-10-16T01:54:11;11.90;99.90
13375;DHT22;6756;51.354;15.754;2022-10-16T01:58:14;11.70;99.90
13375;DHT22;6756;51.354;15.754;2022-10-16T02:02:17;11.70;99.90
13375;DHT22;6756;51.354;15.754;2022-10-16T02:06:19;11.60;99.90
13375;DHT22;6756;51.354;15.754;2022-10-16T02:10:20;11.50;99.90
13375;DHT22;6756;51.354;15.754;2022-10-16T02:14:21;11.30;99.90
13375;DHT22;6756;51.354;15.754;2022-10-16T02:18:25;11.10;99.90
13375;DHT22;6756;51.354;15.754;2022-10-16T02:22:48;10.90;99.90
13375;DHT22;6756;51.354;15.754;2022-10-16T02:27:03;10.80;99.90
13375;DHT22;6756;51.354;15.754;2022-10-16T02:31:08;10.60;99.90
13375;DHT22;6756;51.354;15.754;2022-10-16T02:35:10;10.60;99.90
13375;DHT22;6756;51.354;15.754;2022-10-16T02:39:12;10.40;99.90
13375;DHT22;6756;51.354;15.754;2022-10-16T02:43:14;10.40;99.90
13375;DHT22;6756;51.354;15.754;2022-10-16T02:47:15;10.30;99.90
13375;DHT22;6756;51.354;15.754;2022-10-16T02:51:16;10.30;99.90
13375;DHT22;6756;51.354;15.754;2022-10-16T02:55:16;10.20;99.90
13375;DHT22;6756;51.354;15.754;2022-10-16T02:59:17;10.10;99.90
13375;DHT22;6756;51.354;15.754;2022-10-16T03:03:18;10.10;99.90
13375;DHT22;6756;51.354;15.754;2022-10-16T03:07:19;10.10;99.90
13375;DHT22;6756;51.354;15.754;2022-10-16T03:11:19;10.10;99.90
13375;DHT22;6756;51.354;15.754;2022-10-16T03:15:20;10.10;99.90
13375;DHT22;6756;51.354;15.754;2022-10-16T03:19:22;10.10;99.90
13375;DHT22;6756;51.354;15.754;2022-10-16T03:23:22;10.40;99.90
13375;DHT22;6756;51.354;15.754;2022-10-16T03:27:23;10.80;99.90
13375;DHT22;6756;51.354;15.754;2022-10-16T03:31:24;11.10;99.90
13375;DHT22;6756;51.354;15.754;2022-10-16T03:35:25;11.40;99.90
13375;DHT22;6756;51.354;15.754;2022-10-16T03:39:26;11.80;99.90
13375;DHT22;6756;51.354;15.754;2022-10-16T03:43:27;12.10;99.90
13375;DHT22;6756;51.354;15.754;2022-10-16T03:47:28;12.40;99.90
13375;DHT22;6756;51.354;15.754;2022-10-16T03:51:29;12.50;99.90
13375;DHT22;6756;51.354;15.754;2022-10-16T03:55:29;12.60;99.90
13375;DHT22;6756;51.354;15.754;2022-10-16T03:59:30;12.80;99.90
13375;DHT22;6756;51.354;15.754;2022-10-16T04:03:31;12.90;99.90
13375;DHT22;6756;51.354;15.754;2022-10-16T04:07:32;13.00;99.90
13375;DHT22;6756;51.354;15.754;2022-10-16T04:11:33;13.00;99.90
13375;DHT22;6756;51.354;15.754;2022-10-16T04:15:33;13.00;99.90
13375;DHT22;6756;51.354;15.754;2022-10-16T04:19:34;13.00;99.90
13375;DHT22;6756;51.354;15.754;2022-10-16T04:23:35;13.00;99.90
13375;DHT22;6756;51.354;15.754;2022-10-16T04:27:36;13.00;99.90
13375;DHT22;6756;51.354;15.754;2022-10-16T04:31:36;13.00;99.90
13375;DHT22;6756;51.354;15.754;2022-10-16T04:35:37;13.10;99.90
13375;DHT22;6756;51.354;15.754;2022-10-16T04:39:38;13.10;99.90
13375;DHT22;6756;51.354;15.754;2022-10-16T04:43:39;13.10;99.90
13375;DHT22;6756;51.354;15.754;2022-10-16T04:47:39;13.20;99.90
13375;DHT22;6756;51.354;15.754;2022-10-16T04:51:40;13.30;99.90
13375;DHT22;6756;51.354;15.754;2022-10-16T04:55:41;13.30;99.90
13375;DHT22;6756;51.354;15.754;2022-10-16T04:59:42;13.40;99.90
13375;DHT22;6756;51.354;15.754;2022-10-16T05:03:43;13.60;99.90
13375;DHT22;6756;51.354;15.754;2022-10-16T05:07:44;13.70;99.90
13375;DHT22;6756;51.354;15.754;2022-10-16T05:11:44;13.80;99.90
13375;DHT22;6756;51.354;15.754;2022-10-16T05:15:48;13.80;99.90
13375;DHT22;6756;51.354;15.754;2022-10-16T05:19:49;13.90;99.90
13375;DHT22;6756;51.354;15.754;2022-10-16T05:23:50;14.00;99.90
13375;DHT22;6756;51.354;15.754;2022-10-16T05:27:51;14.10;99.90
13375;DHT22;6756;51.354;15.754;2022-10-16T05:31:52;14.10;99.90
13375;DHT22;6756;51.354;15.754;2022-10-16T05:35:53;14.10;99.90
13375;DHT22;6756;51.354;15.754;2022-10-16T05:39:53;14.10;99.90
13375;DHT22;6756;51.354;15.754;2022-10-16T05:43:54;14.10;99.90
13375;DHT22;6756;51.354;15.754;2022-10-16T05:47:55;14.20;99.90
13375;DHT22;6756;51.354;15.754;2022-10-16T05:51:56;14.30;99.90
13375;DHT22;6756;51.354;15.754;2022-10-16T05:55:57;14.40;99.90
13375;DHT22;6756;51.354;15.754;2022-10-16T05:59:58;14.50;99.90
13375;DHT22;6756;51.354;15.754;2022-10-16T06:03:59;14.60;99.90
13375;DHT22;6756;51.354;15.754;2022-10-16T06:07:59;14.70;99.90
13375;DHT22;6756;51.354;15.754;2022-10-16T06:12:00;14.70;99.90
13375;DHT22;6756;51.354;15.754;2022-10-16T06:16:01;14.70;99.90
13375;DHT22;6756;51.354;15.754;2022-10-16T06:20:03;14.60;99.90
13375;DHT22;6756;51.354;15.754;2022-10-16T06:24:04;14.50;99.90
13375;DHT22;6756;51.354;15.754;2022-10-16T06:28:04;14.50;99.90
13375;DHT22;6756;51.354;15.754;2022-10-16T06:32:05;14.50;99.90
13375;DHT22;6756;51.354;15.754;2022-10-16T06:36:15;14.50;99.90
13375;DHT22;6756;51.354;15.754;2022-10-16T06:40:15;14.60;99.90
13375;DHT22;6756;51.354;15.754;2022-10-16T06:44:16;14.70;99.90
13375;DHT22;6756;51.354;15.754;2022-10-16T06:48:17;14.90;99.90
13375;DHT22;6756;51.354;15.754;2022-10-16T06:52:18;15.10;99.90
13375;DHT22;6756;51.354;15.754;2022-10-16T06:56:24;15.30;99.90
13375;DHT22;6756;51.354;15.754;2022-10-16T07:00:25;15.50;99.90
13375;DHT22;6756;51.354;15.754;2022-10-16T07:04:26;15.70;99.90
13375;DHT22;6756;51.354;15.754;2022-10-16T07:08:27;15.90;99.90
13375;DHT22;6756;51.354;15.754;2022-10-16T07:12:28;16.00;99.90
13375;DHT22;6756;51.354;15.754;2022-10-16T07:16:30;16.10;99.90
13375;DHT22;6756;51.354;15.754;2022-10-16T07:20:32;16.40;99.90
13375;DHT22;6756;51.354;15.754;2022-10-16T07:24:33;16.70;99.90
13375;DHT22;6756;51.354;15.754;2022-10-16T07:28:34;16.90;99.90
13375;DHT22;6756;51.354;15.754;2022-10-16T07:32:35;17.00;99.90
13375;DHT22;6756;51.354;15.754;2022-10-16T07:36:36;17.10;99.90
13375;DHT22;6756;51.354;15.754;2022-10-16T07:40:37;17.20;99.90
13375;DHT22;6756;51.354;15.754;2022-10-16T07:44:37;17.40;99.90
13375;DHT22;6756;51.354;15.754;2022-10-16T07:48:38;17.50;99.90
13375;DHT22;6756;51.354;15.754;2022-10-16T07:52:39;17.50;99.90
13375;DHT22;6756;51.354;15.754;2022-10-16T07:56:40;17.40;99.90
13375;DHT22;6756;51.354;15.754;2022-10-16T08:00:41;17.40;99.90
13375;DHT22;6756;51.354;15.754;2022-10-16T08:04:41;17.60;99.90
13375;DHT22;6756;51.354;15.754;2022-10-16T08:08:42;17.80;99.90
13375;DHT22;6756;51.354;15.754;2022-10-16T08:12:43;17.90;99.90
13375;DHT22;6756;51.354;15.754;2022-10-16T08:16:44;18.10;99.90
13375;DHT22;6756;51.354;15.754;2022-10-16T08:20:45;18.10;99.90
13375;DHT22;6756;51.354;15.754;2022-10-16T08:24:45;18.00;99.90
13375;DHT22;6756;51.354;15.754;2022-10-16T08:28:49;18.10;99.90
13375;DHT22;6756;51.354;15.754;2022-10-16T08:32:51;18.10;99.90
13375;DHT22;6756;51.354;15.754;2022-10-16T08:36:55;18.40;99.90
13375;DHT22;6756;51.354;15.754;2022-10-16T08:41:23;19.10;99.90
13375;DHT22;6756;51.354;15.754;2022-10-16T08:49:59;19.50;1.00
13375;DHT22;6756;51.354;15.754;2022-10-16T08:54:05;19.40;99.90
13375;DHT22;6756;51.354;15.754;2022-10-16T08:58:30;19.40;99.90
13375;DHT22;6756;51.354;15.754;2022-10-16T09:02:32;19.40;99.90
13375;DHT22;6756;51.354;15.754;2022-10-16T09:07:09;19.50;99.90
13375;DHT22;6756;51.354;15.754;2022-10-16T09:15:56;19.80;1.00
13375;DHT22;6756;51.354;15.754;2022-10-16T09:24:30;19.70;1.00
13375;DHT22;6756;51.354;15.754;2022-10-16T09:28:31;19.60;1.00
13375;DHT22;6756;51.354;15.754;2022-10-16T09:32:33;19.50;1.00
13375;DHT22;6756;51.354;15.754;2022-10-16T09:36:40;19.60;1.00
13375;DHT22;6756;51.354;15.754;2022-10-16T09:40:42;19.60;1.00
13375;DHT22;6756;51.354;15.754;2022-10-16T09:44:48;19.80;1.00
13375;DHT22;6756;51.354;15.754;2022-10-16T09:48:50;20.10;99.90
13375;DHT22;6756;51.354;15.754;2022-10-16T09:53:25;20.50;99.90
13375;DHT22;6756;51.354;15.754;2022-10-16T09:57:27;20.80;79.60
13375;DHT22;6756;51.354;15.754;2022-10-16T10:05:40;21.20;16.50
13375;DHT22;6756;51.354;15.754;2022-10-16T10:09:43;21.50;1.00
13375;DHT22;6756;51.354;15.754;2022-10-16T10:13:45;21.50;1.00
13375;DHT22;6756;51.354;15.754;2022-10-16T10:17:48;21.30;28.60
13375;DHT22;6756;51.354;15.754;2022-10-16T10:21:52;21.20;53.00
13375;DHT22;6756;51.354;15.754;2022-10-16T10:34:41;21.60;94.50
13375;DHT22;6756;51.354;15.754;2022-10-16T10:43:54;22.10;1.00
13375;DHT22;6756;51.354;15.754;2022-10-16T11:09:23;21.90;1.00
13375;DHT22;6756;51.354;15.754;2022-10-16T11:13:30;21.90;1.00
13375;DHT22;6756;51.354;15.754;2022-10-16T11:17:43;22.00;1.00
13375;DHT22;6756;51.354;15.754;2022-10-16T11:26:21;22.20;1.00
13375;DHT22;6756;51.354;15.754;2022-10-16T11:30:25;22.00;1.00
13375;DHT22;6756;51.354;15.754;2022-10-16T11:34:41;21.70;99.90
13375;DHT22;6756;51.354;15.754;2022-10-16T11:43:22;21.70;1.00
13375;DHT22;6756;51.354;15.754;2022-10-16T11:47:35;21.80;1.00
13375;DHT22;6756;51.354;15.754;2022-10-16T11:51:50;21.70;1.00
13375;DHT22;6756;51.354;15.754;2022-10-16T11:55:55;21.70;1.00
13375;DHT22;6756;51.354;15.754;2022-10-16T12:08:14;21.50;1.00
13375;DHT22;6756;51.354;15.754;2022-10-16T12:12:39;21.50;1.00
13375;DHT22;6756;51.354;15.754;2022-10-16T12:16:56;21.60;1.00
13375;DHT22;6756;51.354;15.754;2022-10-16T12:20:58;21.60;1.00
13375;DHT22;6756;51.354;15.754;2022-10-16T12:25:05;21.70;1.00
13375;DHT22;6756;51.354;15.754;2022-10-16T12:37:27;22.10;1.00
13375;DHT22;6756;51.354;15.754;2022-10-16T12:41:34;22.20;1.00
13375;DHT22;6756;51.354;15.754;2022-10-16T12:45:36;22.50;99.90
13375;DHT22;6756;51.354;15.754;2022-10-16T12:49:38;22.60;99.90
13375;DHT22;6756;51.354;15.754;2022-10-16T12:53:40;22.40;99.90
13375;DHT22;6756;51.354;15.754;2022-10-16T13:06:42;22.40;99.90
13375;DHT22;6756;51.354;15.754;2022-10-16T13:19:18;22.40;99.90
13375;DHT22;6756;51.354;15.754;2022-10-16T13:31:33;21.90;1.00
13375;DHT22;6756;51.354;15.754;2022-10-16T13:35:35;22.00;1.00
13375;DHT22;6756;51.354;15.754;2022-10-16T13:39:37;22.10;1.00
13375;DHT22;6756;51.354;15.754;2022-10-16T13:43:39;21.90;99.90
13375;DHT22;6756;51.354;15.754;2022-10-16T13:47:40;21.90;1.00
13375;DHT22;6756;51.354;15.754;2022-10-16T13:51:42;21.80;1.00
13375;DHT22;6756;51.354;15.754;2022-10-16T13:55:53;21.90;1.00
13375;DHT22;6756;51.354;15.754;2022-10-16T13:59:55;22.00;1.00
13375;DHT22;6756;51.354;15.754;2022-10-16T14:04:05;21.90;99.90
13375;DHT22;6756;51.354;15.754;2022-10-16T14:08:10;21.70;1.00
13375;DHT22;6756;51.354;15.754;2022-10-16T14:12:12;21.60;1.00
13375;DHT22;6756;51.354;15.754;2022-10-16T14:16:26;21.60;1.00
13375;DHT22;6756;51.354;15.754;2022-10-16T14:20:33;21.70;1.00
13375;DHT22;6756;51.354;15.754;2022-10-16T14:24:35;21.70;1.00
13375;DHT22;6756;51.354;15.754;2022-10-16T14:28:37;21.70;1.00
13375;DHT22;6756;51.354;15.754;2022-10-16T14:32:42;21.80;1.00
13375;DHT22;6756;51.354;15.754;2022-10-16T14:36:42;21.80;1.00
13375;DHT22;6756;51.354;15.754;2022-10-16T14:40:47;21.90;1.00
13375;DHT22;6756;51.354;15.754;2022-10-16T14:44:50;22.00;1.00
13375;DHT22;6756;51.354;15.754;2022-10-16T14:48:59;21.90;1.00
13375;DHT22;6756;51.354;15.754;2022-10-16T14:53:01;21.80;1.00
13375;DHT22;6756;51.354;15.754;2022-10-16T14:57:02;21.70;1.00
13375;DHT22;6756;51.354;15.754;2022-10-16T15:01:03;21.70;1.00
13375;DHT22;6756;51.354;15.754;2022-10-16T15:05:27;21.60;1.00
13375;DHT22;6756;51.354;15.754;2022-10-16T15:09:28;21.50;1.00
13375;DHT22;6756;51.354;15.754;2022-10-16T15:13:29;21.40;1.00
13375;DHT22;6756;51.354;15.754;2022-10-16T15:17:30;21.30;1.00
13375;DHT22;6756;51.354;15.754;2022-10-16T15:21:33;21.10;1.00
13375;DHT22;6756;51.354;15.754;2022-10-16T15:25:37;21.00;1.00
13375;DHT22;6756;51.354;15.754;2022-10-16T15:29:40;20.80;11.90
13375;DHT22;6756;51.354;15.754;2022-10-16T15:33:40;20.70;89.50
13375;DHT22;6756;51.354;15.754;2022-10-16T15:37:41;20.50;99.90
13375;DHT22;6756;51.354;15.754;2022-10-16T15:41:43;20.30;99.90
13375;DHT22;6756;51.354;15.754;2022-10-16T15:45:44;20.10;99.90
13375;DHT22;6756;51.354;15.754;2022-10-16T15:49:45;19.90;99.90
13375;DHT22;6756;51.354;15.754;2022-10-16T15:53:46;19.70;99.90
13375;DHT22;6756;51.354;15.754;2022-10-16T15:57:47;19.60;1.00
13375;DHT22;6756;51.354;15.754;2022-10-16T16:01:48;19.40;1.00
13375;DHT22;6756;51.354;15.754;2022-10-16T16:05:48;19.20;17.20
13375;DHT22;6756;51.354;15.754;2022-10-16T16:09:49;19.00;99.90
13375;DHT22;6756;51.354;15.754;2022-10-16T16:13:50;18.80;99.90
13375;DHT22;6756;51.354;15.754;2022-10-16T16:17:51;18.70;99.90
13375;DHT22;6756;51.354;15.754;2022-10-16T16:21:52;18.40;1.00
13375;DHT22;6756;51.354;15.754;2022-10-16T16:26:06;18.20;99.90
13375;DHT22;6756;51.354;15.754;2022-10-16T16:30:10;17.90;1.00
13375;DHT22;6756;51.354;15.754;2022-10-16T16:34:13;17.70;99.90
13375;DHT22;6756;51.354;15.754;2022-10-16T16:38:14;17.50;1.00
13375;DHT22;6756;51.354;15.754;2022-10-16T16:42:15;17.40;1.00
13375;DHT22;6756;51.354;15.754;2022-10-16T16:46:17;17.40;1.00
13375;DHT22;6756;51.354;15.754;2022-10-16T16:50:20;17.40;99.90
13375;DHT22;6756;51.354;15.754;2022-10-16T16:54:21;17.40;99.90
13375;DHT22;6756;51.354;15.754;2022-10-16T16:58:23;17.40;99.90
13375;DHT22;6756;51.354;15.754;2022-10-16T17:02:24;17.40;99.90
13375;DHT22;6756;51.354;15.754;2022-10-16T17:06:27;17.50;1.00
13375;DHT22;6756;51.354;15.754;2022-10-16T17:10:32;17.40;99.90
13375;DHT22;6756;51.354;15.754;2022-10-16T17:14:33;17.40;99.90
13375;DHT22;6756;51.354;15.754;2022-10-16T17:18:35;17.30;99.90
13375;DHT22;6756;51.354;15.754;2022-10-16T17:22:38;17.30;99.90
13375;DHT22;6756;51.354;15.754;2022-10-16T17:26:40;17.30;99.90
13375;DHT22;6756;51.354;15.754;2022-10-16T17:30:44;17.20;99.90
13375;DHT22;6756;51.354;15.754;2022-10-16T17:34:46;17.20;1.00
13375;DHT22;6756;51.354;15.754;2022-10-16T17:38:47;17.10;99.90
13375;DHT22;6756;51.354;15.754;2022-10-16T17:42:48;16.90;99.90
13375;DHT22;6756;51.354;15.754;2022-10-16T17:46:52;16.80;99.90
13375;DHT22;6756;51.354;15.754;2022-10-16T17:50:53;16.50;99.90
13375;DHT22;6756;51.354;15.754;2022-10-16T17:54:54;16.30;99.90
13375;DHT22;6756;51.354;15.754;2022-10-16T17:58:59;16.20;99.90
13375;DHT22;6756;51.354;15.754;2022-10-16T18:03:01;16.00;99.90
13375;DHT22;6756;51.354;15.754;2022-10-16T18:07:03;15.90;99.90
13375;DHT22;6756;51.354;15.754;2022-10-16T18:11:04;15.80;99.90
13375;DHT22;6756;51.354;15.754;2022-10-16T18:15:07;15.70;99.90
13375;DHT22;6756;51.354;15.754;2022-10-16T18:19:10;15.70;99.90
13375;DHT22;6756;51.354;15.754;2022-10-16T18:23:13;15.70;99.90
13375;DHT22;6756;51.354;15.754;2022-10-16T18:27:14;15.60;99.90
13375;DHT22;6756;51.354;15.754;2022-10-16T18:31:17;15.60;99.90
13375;DHT22;6756;51.354;15.754;2022-10-16T18:35:18;15.50;99.90
13375;DHT22;6756;51.354;15.754;2022-10-16T18:39:19;15.50;99.90
13375;DHT22;6756;51.354;15.754;2022-10-16T18:43:24;15.50;99.90
13375;DHT22;6756;51.354;15.754;2022-10-16T18:47:27;15.50;99.90
13375;DHT22;6756;51.354;15.754;2022-10-16T18:51:33;15.40;99.90
13375;DHT22;6756;51.354;15.754;2022-10-16T18:55:35;15.30;99.90
13375;DHT22;6756;51.354;15.754;2022-10-16T18:59:36;15.30;99.90
13375;DHT22;6756;51.354;15.754;2022-10-16T19:03:39;15.30;99.90
13375;DHT22;6756;51.354;15.754;2022-10-16T19:07:45;15.20;99.90
13375;DHT22;6756;51.354;15.754;2022-10-16T19:11:46;15.10;99.90
13375;DHT22;6756;51.354;15.754;2022-10-16T19:15:47;15.00;99.90
13375;DHT22;6756;51.354;15.754;2022-10-16T19:19:51;14.80;99.90
13375;DHT22;6756;51.354;15.754;2022-10-16T19:23:56;14.70;99.90
13375;DHT22;6756;51.354;15.754;2022-10-16T19:27:58;14.60;99.90
13375;DHT22;6756;51.354;15.754;2022-10-16T19:32:01;14.50;99.90
13375;DHT22;6756;51.354;15.754;2022-10-16T19:36:17;14.40;99.90
13375;DHT22;6756;51.354;15.754;2022-10-16T19:40:18;14.30;99.90
13375;DHT22;6756;51.354;15.754;2022-10-16T19:44:19;14.20;99.90
13375;DHT22;6756;51.354;15.754;2022-10-16T19:48:20;14.00;99.90
13375;DHT22;6756;51.354;15.754;2022-10-16T19:52:22;13.90;99.90
13375;DHT22;6756;51.354;15.754;2022-10-16T19:56:26;13.80;99.90
13375;DHT22;6756;51.354;15.754;2022-10-16T20:00:27;13.70;99.90
13375;DHT22;6756;51.354;15.754;2022-10-16T20:04:28;13.60;99.90
13375;DHT22;6756;51.354;15.754;2022-10-16T20:08:29;13.50;99.90
13375;DHT22;6756;51.354;15.754;2022-10-16T20:12:33;13.50;99.90
13375;DHT22;6756;51.354;15.754;2022-10-16T20:16:34;13.40;99.90
13375;DHT22;6756;51.354;15.754;2022-10-16T20:20:43;13.40;99.90
13375;DHT22;6756;51.354;15.754;2022-10-16T20:24:45;13.30;99.90
13375;DHT22;6756;51.354;15.754;2022-10-16T20:28:45;13.20;99.90
13375;DHT22;6756;51.354;15.754;2022-10-16T20:32:46;13.20;99.90
13375;DHT22;6756;51.354;15.754;2022-10-16T20:36:47;13.10;99.90
13375;DHT22;6756;51.354;15.754;2022-10-16T20:40:50;13.10;99.90
13375;DHT22;6756;51.354;15.754;2022-10-16T20:44:51;13.00;99.90
13375;DHT22;6756;51.354;15.754;2022-10-16T20:48:53;13.00;99.90
13375;DHT22;6756;51.354;15.754;2022-10-16T20:52:54;12.90;99.90
13375;DHT22;6756;51.354;15.754;2022-10-16T20:56:55;12.80;99.90
13375;DHT22;6756;51.354;15.754;2022-10-16T21:01:07;12.80;99.90
13375;DHT22;6756;51.354;15.754;2022-10-16T21:05:08;12.70;99.90
13375;DHT22;6756;51.354;15.754;2022-10-16T21:09:09;12.60;99.90
13375;DHT22;6756;51.354;15.754;2022-10-16T21:13:10;12.60;99.90
13375;DHT22;6756;51.354;15.754;2022-10-16T21:17:11;12.70;99.90
13375;DHT22;6756;51.354;15.754;2022-10-16T21:21:26;12.60;99.90
13375;DHT22;6756;51.354;15.754;2022-10-16T21:25:27;12.60;99.90
13375;DHT22;6756;51.354;15.754;2022-10-16T21:29:29;12.50;99.90
13375;DHT22;6756;51.354;15.754;2022-10-16T21:33:30;12.40;99.90
13375;DHT22;6756;51.354;15.754;2022-10-16T21:37:32;12.40;99.90
13375;DHT22;6756;51.354;15.754;2022-10-16T21:41:33;12.40;99.90
13375;DHT22;6756;51.354;15.754;2022-10-16T21:45:34;12.40;99.90
13375;DHT22;6756;51.354;15.754;2022-10-16T21:49:35;12.40;99.90
13375;DHT22;6756;51.354;15.754;2022-10-16T21:53:36;12.30;99.90
13375;DHT22;6756;51.354;15.754;2022-10-16T21:57:36;12.30;99.90
13375;DHT22;6756;51.354;15.754;2022-10-16T22:01:38;12.30;99.90
13375;DHT22;6756;51.354;15.754;2022-10-16T22:05:39;12.30;99.90
13375;DHT22;6756;51.354;15.754;2022-10-16T22:09:40;12.40;99.90
13375;DHT22;6756;51.354;15.754;2022-10-16T22:13:42;12.40;99.90
13375;DHT22;6756;51.354;15.754;2022-10-16T22:17:42;12.50;99.90
13375;DHT22;6756;51.354;15.754;2022-10-16T22:21:44;12.40;99.90
13375;DHT22;6756;51.354;15.754;2022-10-16T22:25:47;12.30;99.90
13375;DHT22;6756;51.354;15.754;2022-10-16T22:29:52;12.20;99.90
13375;DHT22;6756;51.354;15.754;2022-10-16T22:33:54;12.00;99.90
13375;DHT22;6756;51.354;15.754;2022-10-16T22:37:55;12.00;99.90
13375;DHT22;6756;51.354;15.754;2022-10-16T22:41:56;11.90;99.90
13375;DHT22;6756;51.354;15.754;2022-10-16T22:46:07;11.90;99.90
13375;DHT22;6756;51.354;15.754;2022-10-16T22:50:09;11.90;99.90
13375;DHT22;6756;51.354;15.754;2022-10-16T22:54:09;11.90;99.90
13375;DHT22;6756;51.354;15.754;2022-10-16T22:58:10;11.90;99.90
13375;DHT22;6756;51.354;15.754;2022-10-16T23:02:11;11.90;99.90
13375;DHT22;6756;51.354;15.754;2022-10-16T23:06:12;11.90;99.90
13375;DHT22;6756;51.354;15.754;2022-10-16T23:10:13;11.90;99.90
13375;DHT22;6756;51.354;15.754;2022-10-16T23:14:21;11.80;99.90
13375;DHT22;6756;51.354;15.754;2022-10-16T23:18:22;11.80;99.90
13375;DHT22;6756;51.354;15.754;2022-10-16T23:22:22;11.70;99.90
13375;DHT22;6756;51.354;15.754;2022-10-16T23:26:26;11.70;99.90
13375;DHT22;6756;51.354;15.754;2022-10-16T23:30:27;11.60;99.90
13375;DHT22;6756;51.354;15.754;2022-10-16T23:34:27;11.50;99.90
13375;DHT22;6756;51.354;15.754;2022-10-16T23:38:28;11.40;99.90
13375;DHT22;6756;51.354;15.754;2022-10-16T23:42:29;11.30;99.90
13375;DHT22;6756;51.354;15.754;2022-10-16T23:46:30;11.30;99.90
13375;DHT22;6756;51.354;15.754;2022-10-16T23:50:31;11.20;99.90
13375;DHT22;6756;51.354;15.754;2022-10-16T23:54:31;11.10;99.90
13375;DHT22;6756;51.354;15.754;2022-10-16T23:58:32;11.10;99.90
